Terminal Aerodrome Forecast
Issued by NWS

Home | Current Version | Previous Version | Text Only | Print | Product List | Glossary On
Versions: 1 2 3 4 5 6 7 8 9 10 11 12 13 14
000
FTUS46 KOTX 200730 AAA
TAFPUW
TAF AMD
KPUW 200730Z 2007/2106 23015KT P6SM SCT040
     FM201000 24012KT P6SM SCT080
     FM202000 23009G15KT P6SM SCT050 BKN090
     FM210300 09002KT P6SM SCT120 BKN200=

USA.gov is the U.S. government's official web portal to all federal, state and local government web resources and services.